Time;durP1;ratioP1;P1;durP2;ratioP2;P2;SDS_P1;SDS_P2;PMS_P1;PMS_P2;Temp;Humidity;BMP_temperature;BMP_pressure;BME280_temperature;BME280_humidity;BME280_pressure;Samples;Min_cycle;Max_cycle;Signal;HPM_P1;HPM_P2
2022/01/27 00:06:34;;;;;;;58.72;27.08;;;4.90;48.20;;;;;;5038806;28;20482;-73
2022/01/27 00:09:11;;;;;;;65.97;30.73;;;4.80;46.70;;;;;;5038470;28;20387;-73
2022/01/27 00:11:38;;;;;;;68.53;30.38;;;4.70;47.80;;;;;;5052379;28;20525;-73
2022/01/27 00:14:04;;;;;;;67.47;30.63;;;4.70;47.50;;;;;;5069259;28;20412;-73
2022/01/27 00:16:34;;;;;;;65.85;31.35;;;4.70;47.50;;;;;;5042463;28;20409;-73
2022/01/27 00:19:00;;;;;;;68.83;29.63;;;4.60;47.10;;;;;;5054368;28;20394;-73
2022/01/27 00:21:29;;;;;;;68.25;29.67;;;4.60;46.60;;;;;;5048602;28;20799;-73
2022/01/27 00:23:55;;;;;;;71.25;31.10;;;4.60;46.80;;;;;;5058961;28;20457;-72
2022/01/27 00:26:21;;;;;;;69.25;30.25;;;4.60;46.60;;;;;;5053077;28;20394;-73
2022/01/27 00:28:48;;;;;;;69.32;30.73;;;4.50;47.20;;;;;;5055965;28;20749;-75
2022/01/27 00:31:16;;;;;;;78.15;33.30;;;4.60;46.60;;;;;;5053572;28;20524;-74
2022/01/27 00:33:43;;;;;;;69.67;30.33;;;4.60;47.50;;;;;;5045552;28;20434;-74
2022/01/27 00:36:09;;;;;;;68.00;32.72;;;4.60;46.90;;;;;;5053718;28;20393;-75
2022/01/27 00:38:34;;;;;;;72.53;33.33;;;4.60;47.40;;;;;;5045792;28;20500;-75
2022/01/27 00:41:00;;;;;;;71.10;32.30;;;4.60;47.20;;;;;;5059034;28;20771;-75
2022/01/27 00:43:26;;;;;;;79.95;34.42;;;4.60;47.30;;;;;;5038724;28;20407;-76
2022/01/27 00:45:52;;;;;;;75.15;33.97;;;4.60;48.10;;;;;;5066011;28;20396;-74
2022/01/27 00:48:18;;;;;;;83.00;35.43;;;4.60;48.40;;;;;;5052710;28;20473;-75
2022/01/27 00:50:54;;;;;;;78.10;34.65;;;4.60;47.90;;;;;;5053172;28;20385;-74
2022/01/27 00:55:52;;;;;;;75.70;32.90;;;4.60;49.10;;;;;;5073977;28;20799;-76
2022/01/27 00:58:50;;;;;;;66.03;31.02;;;4.60;48.80;;;;;;5037753;28;20402;-75
2022/01/27 01:01:19;;;;;;;70.40;31.70;;;4.60;48.10;;;;;;5049640;28;20485;-74
2022/01/27 01:03:47;;;;;;;74.57;30.63;;;4.60;48.20;;;;;;5050396;28;20476;-73
2022/01/27 01:11:53;;;;;;;71.18;31.35;;;4.50;49.10;;;;;;5052447;28;20400;-74
2022/01/27 01:17:10;;;;;;;75.57;31.70;;;4.50;48.90;;;;;;5040592;28;20764;-73
2022/01/27 01:19:49;;;;;;;72.88;30.95;;;4.50;48.60;;;;;;5037953;28;20888;-74
2022/01/27 01:33:10;;;;;;;69.65;29.88;;;4.50;49.10;;;;;;5052630;28;20385;-73
2022/01/27 01:36:34;;;;;;;74.18;30.08;;;4.50;49.20;;;;;;5053634;28;20476;-74
2022/01/27 01:38:26;;;;;;;68.40;30.67;;;4.50;49.60;;;;;;5039355;28;20413;-73
2022/01/27 01:40:53;;;;;;;72.60;29.55;;;4.50;48.90;;;;;;5054394;28;21006;-73
2022/01/27 01:43:20;;;;;;;71.30;30.38;;;4.50;49.30;;;;;;5052967;28;20385;-75
2022/01/27 01:45:45;;;;;;;73.00;30.37;;;4.50;50.00;;;;;;5059988;28;20477;-74
2022/01/27 01:48:11;;;;;;;73.80;30.48;;;4.40;49.80;;;;;;5073598;28;20400;-74
2022/01/27 01:50:38;;;;;;;73.33;29.73;;;4.50;50.20;;;;;;5059948;28;20886;-74
2022/01/27 01:53:04;;;;;;;69.60;29.05;;;4.60;49.40;;;;;;5052333;28;20386;-74
2022/01/27 01:55:31;;;;;;;73.35;29.98;;;4.50;49.20;;;;;;5052372;28;20393;-74
2022/01/27 01:57:57;;;;;;;67.18;29.23;;;4.60;49.30;;;;;;5051997;28;20452;-74
2022/01/27 02:00:24;;;;;;;69.22;28.48;;;4.60;49.30;;;;;;5059835;28;20438;-72
2022/01/27 02:02:50;;;;;;;66.82;29.27;;;4.50;49.50;;;;;;5055727;28;20393;-73
2022/01/27 02:05:18;;;;;;;71.28;29.63;;;4.50;50.10;;;;;;5044436;28;20485;-73
2022/01/27 02:08:10;;;;;;;64.85;27.70;;;4.60;49.70;;;;;;5052167;28;20435;-72
2022/01/27 02:17:58;;;;;;;70.05;28.67;;;4.60;50.50;;;;;;5039047;28;20400;-74
2022/01/27 02:19:28;;;;;;;64.65;27.75;;;4.70;49.60;;;;;;5013984;28;20416;-73
2022/01/27 02:21:59;;;;;;;64.45;28.50;;;4.70;50.00;;;;;;5051532;28;20393;-73
2022/01/27 02:24:28;;;;;;;61.83;26.85;;;4.70;49.70;;;;;;5050368;28;20474;-74
2022/01/27 02:26:55;;;;;;;64.88;27.45;;;4.60;50.70;;;;;;5038187;28;20394;-73
2022/01/27 02:29:21;;;;;;;61.90;27.75;;;4.70;49.60;;;;;;5055629;28;20397;-73
2022/01/27 02:31:49;;;;;;;63.45;26.25;;;4.60;50.10;;;;;;5051798;28;20396;-74
2022/01/27 02:34:14;;;;;;;59.65;27.05;;;4.60;50.50;;;;;;5050776;28;20480;-72
2022/01/27 02:36:40;;;;;;;63.63;27.92;;;4.70;50.10;;;;;;5050501;28;20472;-73
2022/01/27 02:39:08;;;;;;;62.27;27.37;;;4.60;50.70;;;;;;5050620;28;20451;-73
2022/01/27 02:41:46;;;;;;;57.72;26.23;;;4.60;50.50;;;;;;5031143;28;20399;-75
2022/01/27 02:44:34;;;;;;;64.90;27.45;;;4.60;50.90;;;;;;5047831;28;20954;-74
2022/01/27 02:47:00;;;;;;;62.42;27.15;;;4.60;50.80;;;;;;5055275;28;20400;-74
2022/01/27 02:49:26;;;;;;;67.10;28.40;;;4.60;50.90;;;;;;5070685;28;20383;-74
2022/01/27 02:51:52;;;;;;;59.35;26.50;;;4.60;50.90;;;;;;5055317;28;20385;-75
2022/01/27 02:54:19;;;;;;;69.32;28.42;;;4.70;50.80;;;;;;5043575;28;20409;-73
2022/01/27 02:56:47;;;;;;;63.40;26.40;;;4.60;51.00;;;;;;5036714;28;20395;-75
2022/01/27 02:59:17;;;;;;;59.05;26.45;;;4.70;51.10;;;;;;5034457;28;20402;-73
2022/01/27 03:01:47;;;;;;;61.47;27.38;;;4.70;50.90;;;;;;5053514;28;20910;-74
2022/01/27 03:04:13;;;;;;;63.08;26.92;;;4.70;50.90;;;;;;5035181;28;20451;-74
2022/01/27 03:06:39;;;;;;;60.13;26.30;;;4.80;50.20;;;;;;5056427;28;20398;-73
2022/01/27 03:09:04;;;;;;;60.30;27.07;;;4.80;50.30;;;;;;5053575;28;20787;-74
2022/01/27 03:11:57;;;;;;;61.67;27.23;;;4.80;50.10;;;;;;5052482;28;20391;-73
2022/01/27 03:14:24;;;;;;;55.97;25.90;;;4.70;50.30;;;;;;5058602;28;20395;-74
2022/01/27 03:16:54;;;;;;;59.13;26.80;;;4.70;50.90;;;;;;5006958;28;1767534;-74
2022/01/27 03:19:19;;;;;;;65.30;26.88;;;4.80;50.60;;;;;;5070743;28;20893;-73
2022/01/27 03:21:45;;;;;;;59.53;26.50;;;4.70;51.00;;;;;;5052830;28;20440;-75
2022/01/27 03:24:10;;;;;;;61.37;27.07;;;4.80;50.30;;;;;;5031400;28;20383;-74
2022/01/27 03:26:36;;;;;;;62.20;26.60;;;4.80;50.40;;;;;;5030607;28;20391;-74
2022/01/27 03:29:03;;;;;;;58.85;26.85;;;4.70;51.00;;;;;;5035304;28;20408;-76
2022/01/27 03:31:29;;;;;;;57.90;25.90;;;4.80;51.00;;;;;;5070764;28;20415;-75
2022/01/27 03:33:54;;;;;;;59.33;27.30;;;4.80;51.10;;;;;;5070604;28;20446;-74
2022/01/27 03:36:20;;;;;;;57.85;27.27;;;4.80;50.90;;;;;;5063201;28;20401;-74
2022/01/27 03:38:47;;;;;;;61.90;25.37;;;4.80;51.10;;;;;;5055151;28;20475;-74
2022/01/27 03:41:18;;;;;;;57.60;26.63;;;4.70;50.80;;;;;;5054878;28;20772;-74
2022/01/27 03:43:44;;;;;;;54.33;26.08;;;4.80;50.70;;;;;;5054678;28;20743;-74
2022/01/27 03:46:10;;;;;;;64.10;27.05;;;4.80;51.60;;;;;;5054974;28;20389;-74
2022/01/27 03:48:36;;;;;;;61.30;26.90;;;4.80;50.90;;;;;;5054525;28;20394;-74
2022/01/27 03:51:02;;;;;;;56.77;25.60;;;4.80;50.60;;;;;;5066030;28;20765;-74
2022/01/27 03:53:28;;;;;;;53.17;25.92;;;4.80;50.70;;;;;;5077362;28;20387;-74
2022/01/27 03:55:53;;;;;;;57.60;25.75;;;4.80;50.90;;;;;;5063397;28;20397;-75
2022/01/27 03:58:19;;;;;;;60.22;25.95;;;4.80;51.00;;;;;;5054947;28;20427;-75
2022/01/27 04:00:45;;;;;;;60.60;26.75;;;4.90;50.00;;;;;;5063693;28;20778;-75
2022/01/27 04:03:13;;;;;;;56.40;24.90;;;4.90;50.60;;;;;;5056362;28;20592;-75
2022/01/27 04:05:42;;;;;;;56.97;25.42;;;4.80;51.40;;;;;;5053407;28;20390;-75
2022/01/27 04:08:10;;;;;;;62.47;26.77;;;4.90;50.70;;;;;;5064203;28;20675;-75
2022/01/27 04:10:36;;;;;;;67.50;26.25;;;4.90;50.80;;;;;;5060518;28;20395;-75
2022/01/27 04:13:04;;;;;;;53.28;24.85;;;4.80;50.60;;;;;;5075412;28;20399;-74
2022/01/27 04:15:30;;;;;;;56.47;25.90;;;4.90;50.90;;;;;;5066539;28;20390;-74
2022/01/27 04:17:55;;;;;;;56.90;24.85;;;4.90;51.00;;;;;;5034336;28;20391;-75
2022/01/27 04:20:21;;;;;;;58.33;25.30;;;4.90;51.20;;;;;;5039287;28;20405;-74
2022/01/27 04:22:47;;;;;;;55.30;25.30;;;4.90;51.60;;;;;;5074013;28;20383;-74
2022/01/27 04:25:14;;;;;;;60.08;25.42;;;4.80;51.90;;;;;;5054885;28;20385;-74
2022/01/27 04:27:45;;;;;;;57.53;24.73;;;4.90;51.80;;;;;;5035954;28;20466;-74
2022/01/27 04:30:16;;;;;;;59.05;26.00;;;5.00;51.30;;;;;;5033610;28;20461;-74
2022/01/27 04:32:47;;;;;;;59.00;24.80;;;4.90;51.60;;;;;;5064392;28;20584;-76
2022/01/27 04:35:17;;;;;;;56.50;25.75;;;5.00;51.50;;;;;;5053781;28;20381;-75
2022/01/27 04:37:55;;;;;;;57.95;26.17;;;4.90;51.90;;;;;;5053554;28;20416;-74
2022/01/27 04:40:28;;;;;;;58.85;24.50;;;5.00;52.50;;;;;;5053899;28;20409;-74
2022/01/27 04:43:25;;;;;;;53.97;24.63;;;5.00;51.60;;;;;;5061968;28;20389;-73
2022/01/27 04:45:59;;;;;;;55.92;24.73;;;5.00;52.10;;;;;;5053830;28;20452;-73
2022/01/27 04:48:28;;;;;;;54.10;24.75;;;5.00;51.30;;;;;;5033523;28;20418;-74
2022/01/27 04:50:57;;;;;;;56.92;25.05;;;5.10;52.00;;;;;;5046931;28;20425;-75
2022/01/27 04:53:30;;;;;;;50.90;24.52;;;5.10;52.30;;;;;;5033811;28;20426;-73
2022/01/27 04:55:58;;;;;;;55.70;24.75;;;5.10;51.00;;;;;;5033467;28;20734;-75
2022/01/27 04:58:30;;;;;;;55.08;24.17;;;5.10;51.10;;;;;;5033133;28;20387;-75
2022/01/27 05:00:59;;;;;;;55.97;25.40;;;5.10;51.50;;;;;;5047248;28;20453;-75
2022/01/27 05:03:36;;;;;;;53.47;25.37;;;5.10;51.80;;;;;;5056355;28;20392;-74
2022/01/27 05:06:03;;;;;;;65.65;27.23;;;5.10;51.60;;;;;;5053632;28;20758;-74
2022/01/27 05:08:28;;;;;;;57.35;26.65;;;5.10;52.70;;;;;;5053325;28;20425;-74
2022/01/27 05:11:02;;;;;;;57.60;26.00;;;5.10;51.40;;;;;;5054026;28;20425;-74
2022/01/27 05:13:30;;;;;;;60.08;25.58;;;5.10;52.20;;;;;;5066915;28;20697;-74
2022/01/27 05:15:56;;;;;;;57.00;25.55;;;5.20;51.50;;;;;;5055693;28;20402;-74
2022/01/27 05:18:21;;;;;;;59.63;25.70;;;5.20;51.30;;;;;;5038924;28;20410;-74
2022/01/27 05:20:48;;;;;;;57.27;25.30;;;5.10;52.30;;;;;;5050205;28;20413;-74
2022/01/27 05:23:14;;;;;;;55.40;25.00;;;5.10;52.90;;;;;;5037121;28;20392;-74
2022/01/27 05:25:40;;;;;;;56.75;26.80;;;5.10;52.40;;;;;;5042016;28;20836;-73
2022/01/27 05:28:07;;;;;;;62.00;26.30;;;5.10;52.20;;;;;;5046812;28;20394;-73
2022/01/27 05:30:34;;;;;;;62.67;26.75;;;5.20;52.50;;;;;;5058111;28;20431;-74
2022/01/27 05:32:59;;;;;;;60.60;25.17;;;5.10;53.00;;;;;;5053233;28;20389;-73
2022/01/27 05:35:25;;;;;;;58.92;25.20;;;5.30;52.90;;;;;;5052646;28;20389;-74
2022/01/27 05:37:51;;;;;;;54.97;25.40;;;5.30;52.90;;;;;;5052569;28;20413;-75
2022/01/27 05:40:17;;;;;;;60.90;25.30;;;5.30;53.00;;;;;;5052786;28;20413;-75
2022/01/27 05:42:42;;;;;;;55.17;24.93;;;5.30;52.70;;;;;;5051862;28;20397;-73
2022/01/27 05:45:08;;;;;;;53.13;25.02;;;5.30;52.90;;;;;;5052876;28;20385;-73
2022/01/27 05:47:34;;;;;;;56.08;24.55;;;5.30;52.90;;;;;;5052872;28;20896;-75
2022/01/27 05:50:00;;;;;;;54.30;24.20;;;5.40;52.00;;;;;;5055156;28;20396;-75
2022/01/27 05:52:25;;;;;;;59.53;25.23;;;5.50;51.30;;;;;;5053844;28;20412;-74
2022/01/27 05:54:51;;;;;;;56.47;24.60;;;5.50;51.70;;;;;;5053700;28;20385;-74
2022/01/27 05:57:16;;;;;;;48.67;23.27;;;5.60;51.60;;;;;;5045728;28;20705;-74
2022/01/27 05:59:42;;;;;;;51.42;24.33;;;5.70;51.40;;;;;;5043577;28;20421;-73
2022/01/27 06:02:07;;;;;;;55.47;24.27;;;5.60;51.60;;;;;;5057038;28;20398;-73
2022/01/27 06:04:33;;;;;;;48.35;23.50;;;5.60;52.10;;;;;;5056713;28;20389;-74
2022/01/27 06:06:59;;;;;;;51.50;24.97;;;5.60;51.70;;;;;;5070562;28;20947;-75
2022/01/27 06:09:25;;;;;;;50.08;23.38;;;5.60;52.50;;;;;;5076203;28;20426;-74
2022/01/27 06:11:51;;;;;;;54.85;23.20;;;5.70;52.70;;;;;;5051112;28;20395;-74
2022/01/27 06:14:17;;;;;;;44.75;21.98;;;5.70;52.30;;;;;;5036050;28;20827;-75
2022/01/27 06:16:45;;;;;;;48.13;21.50;;;5.80;51.90;;;;;;5071964;28;20460;-75
2022/01/27 06:19:10;;;;;;;45.30;21.77;;;5.80;51.90;;;;;;5075709;28;20918;-76
2022/01/27 06:21:36;;;;;;;44.72;21.77;;;5.90;51.90;;;;;;5062500;28;20385;-75
2022/01/27 06:24:03;;;;;;;47.42;21.00;;;6.00;51.30;;;;;;5052553;28;20420;-75
2022/01/27 06:26:29;;;;;;;49.67;22.08;;;6.00;51.60;;;;;;5047788;28;20484;-74
2022/01/27 06:28:56;;;;;;;50.33;21.05;;;6.00;51.70;;;;;;5034539;28;20459;-74
2022/01/27 06:31:21;;;;;;;48.78;21.05;;;6.00;52.10;;;;;;5063755;28;20406;-74
2022/01/27 06:33:47;;;;;;;54.45;21.38;;;6.10;51.80;;;;;;5071975;28;20757;-74
2022/01/27 06:36:13;;;;;;;43.23;20.00;;;6.10;52.10;;;;;;5057179;28;20408;-74
2022/01/27 06:38:38;;;;;;;58.57;22.30;;;6.20;51.50;;;;;;5051595;28;20394;-73
2022/01/27 06:41:04;;;;;;;45.43;20.23;;;6.20;51.00;;;;;;5048964;28;20405;-75
2022/01/27 06:43:29;;;;;;;43.10;20.60;;;6.20;50.70;;;;;;5054598;28;20393;-75
2022/01/27 06:45:55;;;;;;;53.97;21.53;;;6.30;50.80;;;;;;5057969;28;20751;-76
2022/01/27 06:48:20;;;;;;;47.93;22.53;;;6.30;50.40;;;;;;5061035;28;20401;-74
2022/01/27 06:50:52;;;;;;;45.13;20.83;;;6.30;51.40;;;;;;5053106;28;20739;-74
2022/01/27 06:53:18;;;;;;;41.90;20.42;;;6.30;51.10;;;;;;5056210;28;20729;-75
2022/01/27 06:55:43;;;;;;;48.80;21.55;;;6.40;50.80;;;;;;5052661;28;20389;-73
2022/01/27 06:58:09;;;;;;;45.65;20.83;;;6.40;51.00;;;;;;5051580;28;20400;-74
2022/01/27 07:00:34;;;;;;;44.55;20.23;;;6.30;51.20;;;;;;5054530;28;20407;-74
2022/01/27 07:03:00;;;;;;;43.63;20.77;;;6.40;51.20;;;;;;5063502;28;20427;-74
2022/01/27 07:05:26;;;;;;;45.50;21.13;;;6.40;51.50;;;;;;5065160;28;20793;-75
2022/01/27 07:07:51;;;;;;;45.47;21.13;;;6.50;51.00;;;;;;5042565;28;20441;-74
2022/01/27 07:10:17;;;;;;;48.33;21.63;;;6.40;51.20;;;;;;5033772;28;20465;-72
2022/01/27 07:12:43;;;;;;;52.70;21.37;;;6.50;50.90;;;;;;5050823;28;20404;-71
2022/01/27 07:15:09;;;;;;;46.47;20.27;;;6.50;50.80;;;;;;5046908;28;20401;-74
2022/01/27 07:17:35;;;;;;;47.88;21.55;;;6.60;51.20;;;;;;5030076;28;20452;-74
2022/01/27 07:20:00;;;;;;;45.43;20.83;;;6.60;50.60;;;;;;5046007;28;20417;-76
2022/01/27 07:22:26;;;;;;;46.87;21.23;;;6.60;50.70;;;;;;5043531;28;20961;-74
2022/01/27 07:24:51;;;;;;;48.57;21.20;;;6.60;51.20;;;;;;5031488;28;20504;-75
2022/01/27 07:27:17;;;;;;;55.30;22.27;;;6.70;51.10;;;;;;5041475;28;20399;-76
2022/01/27 07:29:45;;;;;;;54.92;22.48;;;6.70;50.70;;;;;;5028855;28;20410;-74
2022/01/27 07:32:10;;;;;;;50.47;21.30;;;6.70;50.70;;;;;;5021924;28;20420;-73
2022/01/27 07:34:36;;;;;;;42.97;20.77;;;6.70;51.80;;;;;;5039741;28;20983;-74
2022/01/27 07:37:02;;;;;;;43.63;20.38;;;6.70;50.90;;;;;;5060142;28;20431;-74
2022/01/27 07:39:28;;;;;;;45.38;20.67;;;6.80;50.80;;;;;;5029931;28;20417;-75
2022/01/27 07:41:57;;;;;;;45.13;20.90;;;6.80;50.90;;;;;;5023177;28;20401;-74
2022/01/27 07:44:24;;;;;;;56.50;23.20;;;6.80;51.30;;;;;;5047462;28;20972;-75
2022/01/27 07:46:49;;;;;;;54.60;22.20;;;6.80;52.20;;;;;;5044879;28;20404;-74
2022/01/27 07:49:15;;;;;;;47.53;20.70;;;6.80;52.00;;;;;;5051287;28;20553;-73
2022/01/27 07:51:40;;;;;;;50.90;21.37;;;6.80;51.60;;;;;;5050476;28;20405;-72
2022/01/27 07:54:06;;;;;;;49.80;21.87;;;6.80;53.10;;;;;;5034508;28;20951;-73
2022/01/27 07:56:32;;;;;;;49.90;22.63;;;6.70;53.60;;;;;;5049105;28;20492;-75
2022/01/27 07:58:57;;;;;;;49.50;21.55;;;6.80;53.50;;;;;;5030097;28;20500;-75
2022/01/27 08:01:23;;;;;;;49.40;22.93;;;6.80;53.40;;;;;;5055499;28;20464;-74
2022/01/27 08:03:49;;;;;;;54.97;22.27;;;6.80;53.50;;;;;;5050738;28;20389;-73
2022/01/27 08:06:14;;;;;;;49.23;21.70;;;6.80;53.40;;;;;;5033952;28;20390;-72
2022/01/27 08:08:40;;;;;;;45.50;21.83;;;6.80;53.70;;;;;;5033546;28;20395;-73
2022/01/27 08:11:05;;;;;;;54.77;22.97;;;6.90;53.30;;;;;;5045363;28;20385;-72
2022/01/27 08:13:31;;;;;;;57.17;22.80;;;6.80;53.60;;;;;;5041515;28;20441;-74
2022/01/27 08:15:57;;;;;;;47.43;21.97;;;6.90;53.40;;;;;;5047547;28;20391;-74
2022/01/27 08:18:22;;;;;;;50.40;23.00;;;6.80;54.30;;;;;;5038968;28;20391;-74
2022/01/27 08:20:49;;;;;;;51.03;23.55;;;6.90;55.00;;;;;;5059264;28;20409;-73
2022/01/27 08:23:15;;;;;;;50.87;23.00;;;6.80;56.80;;;;;;5018572;28;20403;-73
2022/01/27 08:25:42;;;;;;;59.17;24.30;;;6.80;59.10;;;;;;5035553;28;20405;-73
2022/01/27 08:28:19;;;;;;;56.05;24.45;;;6.70;62.30;;;;;;5050115;28;20393;-73
2022/01/27 08:30:48;;;;;;;55.45;25.27;;;6.70;65.10;;;;;;5052994;28;20757;-73
2022/01/27 08:33:16;;;;;;;64.20;25.45;;;6.60;68.70;;;;;;5041894;28;20403;-74
2022/01/27 08:35:42;;;;;;;63.05;26.50;;;6.50;72.80;;;;;;5047244;28;20401;-73
2022/01/27 08:38:08;;;;;;;58.45;25.70;;;6.40;77.20;;;;;;5051865;28;20403;-73
2022/01/27 08:40:34;;;;;;;61.30;25.67;;;6.40;77.90;;;;;;5045769;28;20486;-73
2022/01/27 08:43:00;;;;;;;59.95;26.88;;;6.40;80.50;;;;;;5035835;28;20394;-74
2022/01/27 08:45:26;;;;;;;64.97;25.43;;;6.40;81.90;;;;;;5053051;28;20386;-72
2022/01/27 08:47:55;;;;;;;66.47;27.70;;;6.30;81.10;;;;;;5045146;28;20455;-73
2022/01/27 08:50:22;;;;;;;62.13;27.93;;;6.30;83.80;;;;;;5044150;28;20398;-73
2022/01/27 08:52:48;;;;;;;52.47;25.38;;;6.30;84.20;;;;;;5070221;28;20392;-74
2022/01/27 08:55:16;;;;;;;60.00;27.17;;;6.30;84.40;;;;;;5055705;28;20542;-75
2022/01/27 08:57:41;;;;;;;65.28;27.70;;;6.40;84.30;;;;;;5056623;28;20397;-75
2022/01/27 09:00:09;;;;;;;71.27;29.30;;;6.30;86.40;;;;;;5058244;28;20409;-76
2022/01/27 09:02:35;;;;;;;60.30;28.38;;;6.40;86.60;;;;;;5052453;28;20792;-74
2022/01/27 09:05:00;;;;;;;71.30;28.15;;;6.40;86.10;;;;;;5041041;28;20385;-74
2022/01/27 09:07:26;;;;;;;71.05;28.38;;;6.40;87.50;;;;;;5053766;28;20381;-75
2022/01/27 09:09:52;;;;;;;63.57;27.50;;;6.50;85.80;;;;;;5061930;28;20396;-76
2022/01/27 09:12:18;;;;;;;61.63;27.42;;;6.50;85.50;;;;;;5057468;28;20427;-74
2022/01/27 09:14:44;;;;;;;65.93;27.80;;;6.50;86.50;;;;;;5068424;28;20815;-74
2022/01/27 09:17:11;;;;;;;64.60;27.57;;;6.60;85.30;;;;;;5061542;28;20524;-74
2022/01/27 09:19:40;;;;;;;66.88;28.95;;;6.60;86.60;;;;;;5059536;28;20424;-74
2022/01/27 09:22:12;;;;;;;62.47;28.77;;;6.60;86.70;;;;;;5036288;28;20387;-75
2022/01/27 09:24:48;;;;;;;59.13;28.58;;;6.60;85.90;;;;;;5054230;28;20398;-75
2022/01/27 09:27:13;;;;;;;72.55;29.92;;;6.50;88.20;;;;;;5055502;28;20895;-75
2022/01/27 09:29:39;;;;;;;59.40;27.93;;;6.50;90.20;;;;;;5053724;28;20389;-74
2022/01/27 09:32:05;;;;;;;65.17;29.53;;;6.60;89.50;;;;;;5053382;28;20404;-74
2022/01/27 09:34:31;;;;;;;66.68;28.80;;;6.60;89.40;;;;;;5041709;28;20399;-74
2022/01/27 09:37:01;;;;;;;67.60;29.10;;;6.60;89.80;;;;;;5049421;28;20407;-75
2022/01/27 09:39:27;;;;;;;62.67;28.35;;;6.60;91.20;;;;;;5053318;28;20488;-75
2022/01/27 09:41:55;;;;;;;73.27;29.47;;;6.70;89.60;;;;;;5062145;28;20847;-77
2022/01/27 09:44:28;;;;;;;62.55;28.08;;;6.70;90.20;;;;;;5073057;28;20416;-74
2022/01/27 09:46:57;;;;;;;64.90;27.65;;;6.70;90.80;;;;;;5052908;28;20413;-75
2022/01/27 09:49:31;;;;;;;59.07;27.60;;;6.60;92.10;;;;;;5053460;28;20440;-75
2022/01/27 09:51:57;;;;;;;59.85;26.20;;;6.60;92.20;;;;;;5058758;28;20420;-75
2022/01/27 09:54:23;;;;;;;57.17;25.63;;;6.70;88.30;;;;;;5049381;28;20399;-75
2022/01/27 09:56:49;;;;;;;57.07;26.73;;;6.70;90.30;;;;;;5014860;28;20394;-75
2022/01/27 09:59:16;;;;;;;55.17;25.13;;;6.60;92.60;;;;;;5031916;28;20440;-74
2022/01/27 10:01:59;;;;;;;52.60;25.83;;;6.80;90.00;;;;;;5051538;28;20420;-75
2022/01/27 10:04:46;;;;;;;56.43;23.80;;;6.70;89.40;;;;;;5050193;28;20466;-74
2022/01/27 10:07:14;;;;;;;53.63;25.42;;;6.70;89.60;;;;;;5052698;28;20420;-75
2022/01/27 10:09:58;;;;;;;57.28;26.02;;;6.80;91.60;;;;;;5052347;28;20464;-75
2022/01/27 10:12:30;;;;;;;54.72;25.98;;;6.90;91.50;;;;;;5032776;28;20416;-75
2022/01/27 10:15:01;;;;;;;53.65;25.45;;;6.80;92.20;;;;;;5032473;28;20419;-74
2022/01/27 10:17:29;;;;;;;52.60;24.50;;;6.90;91.50;;;;;;5035336;28;20398;-74
2022/01/27 10:19:54;;;;;;;48.45;23.13;;;6.90;91.90;;;;;;5044704;28;21096;-73
2022/01/27 10:22:21;;;;;;;48.67;22.83;;;7.00;89.70;;;;;;5033840;28;20477;-75
2022/01/27 10:24:59;;;;;;;46.63;23.77;;;7.00;89.30;;;;;;5068766;28;20463;-75
2022/01/27 10:32:46;;;;;;;50.85;21.92;;;7.10;87.80;;;;;;5044127;28;20401;-75
2022/01/27 10:35:15;;;;;;;46.23;22.73;;;7.10;89.80;;;;;;5051409;28;20419;-76
2022/01/27 10:38:03;;;;;;;40.78;20.83;;;7.10;91.00;;;;;;5046233;28;20396;-76
2022/01/27 10:40:35;;;;;;;38.20;19.60;;;7.00;89.00;;;;;;5031242;28;20932;-76
2022/01/27 10:43:07;;;;;;;41.33;19.00;;;7.00;88.80;;;;;;5038141;28;20418;-76
2022/01/27 10:45:33;;;;;;;35.00;18.10;;;7.00;89.90;;;;;;5035473;28;20389;-75
2022/01/27 10:48:20;;;;;;;39.42;19.90;;;7.00;89.60;;;;;;5065128;28;20399;-75
2022/01/27 10:51:16;;;;;;;33.60;17.70;;;7.00;90.70;;;;;;5054722;28;20447;-75
2022/01/27 10:56:30;;;;;;;39.17;18.08;;;7.10;90.60;;;;;;5029468;28;20917;-74
2022/01/27 10:58:57;;;;;;;36.45;18.38;;;7.10;92.40;;;;;;5041009;28;20402;-76
2022/01/27 11:01:29;;;;;;;32.05;15.77;;;7.20;92.20;;;;;;5038485;28;20419;-74
2022/01/27 11:03:58;;;;;;;37.10;16.75;;;7.20;89.50;;;;;;5046312;28;20459;-75
2022/01/27 11:06:26;;;;;;;30.75;16.23;;;7.20;90.50;;;;;;5052633;28;20790;-75
2022/01/27 11:08:55;;;;;;;30.25;15.27;;;7.20;91.00;;;;;;5042208;28;20393;-75
2022/01/27 11:11:22;;;;;;;33.47;15.25;;;7.20;90.20;;;;;;5046992;28;20815;-75
2022/01/27 11:13:49;;;;;;;29.60;15.10;;;7.20;89.90;;;;;;5031296;28;20868;-75
2022/01/27 11:16:18;;;;;;;30.33;14.43;;;7.20;92.30;;;;;;5023030;28;20441;-74
2022/01/27 11:18:46;;;;;;;30.05;14.90;;;7.20;92.50;;;;;;5053277;28;20389;-73
2022/01/27 11:21:25;;;;;;;24.77;13.30;;;7.20;91.10;;;;;;5038910;28;20404;-73
2022/01/27 11:24:55;;;;;;;29.83;13.85;;;7.20;91.30;;;;;;5037903;28;20395;-74
2022/01/27 11:26:40;;;;;;;29.00;14.70;;;7.20;90.90;;;;;;5025676;28;20403;-74
2022/01/27 11:29:08;;;;;;;27.63;14.60;;;7.20;92.00;;;;;;5036566;28;20465;-75
2022/01/27 11:31:50;;;;;;;26.30;14.70;;;7.30;92.40;;;;;;5049164;28;20451;-73
2022/01/27 11:34:16;;;;;;;27.45;15.00;;;7.30;92.30;;;;;;5051071;28;20416;-74
2022/01/27 11:37:04;;;;;;;25.08;13.48;;;7.30;92.00;;;;;;5050779;28;20923;-74
2022/01/27 11:39:48;;;;;;;26.38;13.93;;;7.30;89.20;;;;;;5051139;28;20783;-74
2022/01/27 11:42:17;;;;;;;28.47;15.20;;;7.30;91.40;;;;;;5035840;28;20451;-73
2022/01/27 11:44:45;;;;;;;28.42;14.70;;;7.20;93.30;;;;;;5030552;28;20456;-74
2022/01/27 11:47:12;;;;;;;27.30;15.00;;;7.30;92.00;;;;;;5049003;28;20389;-74
2022/01/27 11:49:53;;;;;;;28.00;15.00;;;7.30;93.20;;;;;;5058747;28;20400;-75
2022/01/27 11:52:27;;;;;;;27.63;14.40;;;7.30;92.30;;;;;;5050148;28;20403;-74
2022/01/27 11:54:56;;;;;;;29.95;15.45;;;7.30;93.40;;;;;;5042564;28;20506;-74
2022/01/27 11:57:39;;;;;;;29.17;15.30;;;7.30;93.90;;;;;;5048355;28;20376;-75
2022/01/27 12:00:11;;;;;;;25.00;14.90;;;7.30;94.90;;;;;;5060710;28;20402;-75
2022/01/27 12:03:01;;;;;;;30.47;16.63;;;7.30;96.70;;;;;;5076170;28;21004;-74
2022/01/27 12:05:39;;;;;;;30.90;16.88;;;7.40;97.00;;;;;;5050440;28;20392;-74
2022/01/27 12:08:14;;;;;;;28.67;15.57;;;7.40;95.40;;;;;;5053772;28;20950;-75
2022/01/27 12:10:48;;;;;;;31.40;15.95;;;7.40;95.60;;;;;;5055467;28;20834;-74
2022/01/27 12:13:33;;;;;;;29.37;14.77;;;7.40;97.10;;;;;;5058081;28;20445;-73
2022/01/27 12:18:56;;;;;;;28.90;16.17;;;7.50;97.00;;;;;;5037843;28;20429;-73
2022/01/27 12:21:28;;;;;;;29.95;15.25;;;7.50;96.50;;;;;;5049698;28;20711;-74
2022/01/27 12:24:13;;;;;;;27.77;15.63;;;7.50;95.80;;;;;;5066713;28;20420;-74
2022/01/27 12:26:51;;;;;;;32.13;16.05;;;7.50;96.70;;;;;;5086097;28;20382;-75
2022/01/27 12:29:25;;;;;;;30.75;14.82;;;7.50;96.90;;;;;;5080388;28;20495;-75
2022/01/27 12:31:53;;;;;;;24.65;14.50;;;7.60;93.50;;;;;;5072780;28;20389;-74
2022/01/27 12:34:20;;;;;;;22.13;13.45;;;7.60;92.60;;;;;;5065313;28;20410;-74
2022/01/27 12:37:12;;;;;;;27.90;14.55;;;7.60;93.20;;;;;;5064963;28;20374;-73
2022/01/27 12:39:43;;;;;;;30.48;14.98;;;7.60;94.40;;;;;;5060503;28;20511;-73
2022/01/27 12:42:13;;;;;;;24.90;14.52;;;7.70;94.90;;;;;;5052248;28;20386;-73
2022/01/27 12:44:42;;;;;;;24.52;13.32;;;7.70;94.50;;;;;;5064836;28;20490;-72
2022/01/27 12:47:15;;;;;;;21.27;13.30;;;7.70;93.10;;;;;;5073162;28;20410;-73
2022/01/27 12:50:02;;;;;;;25.88;13.65;;;7.80;92.60;;;;;;5054453;28;20444;-73
2022/01/27 12:52:31;;;;;;;25.00;12.82;;;7.70;92.20;;;;;;5072298;28;20391;-74
2022/01/27 12:54:57;;;;;;;26.35;14.30;;;7.70;91.60;;;;;;5056348;28;20394;-73
2022/01/27 12:57:24;;;;;;;24.57;13.20;;;7.70;93.80;;;;;;5056779;28;20657;-75
2022/01/27 12:59:52;;;;;;;23.23;14.02;;;7.70;95.40;;;;;;5033490;28;20407;-72
2022/01/27 13:02:19;;;;;;;23.13;13.23;;;7.60;96.60;;;;;;5040565;28;20404;-73
2022/01/27 13:04:45;;;;;;;24.15;14.00;;;7.70;97.10;;;;;;5053349;28;20472;-75
2022/01/27 13:07:11;;;;;;;25.73;14.07;;;7.60;98.60;;;;;;5053333;28;20388;-76
2022/01/27 13:09:39;;;;;;;23.73;13.93;;;7.60;99.90;;;;;;5052808;28;20393;-75
2022/01/27 13:12:23;;;;;;;25.63;14.73;;;7.60;99.90;;;;;;5053215;28;20831;-75
2022/01/27 13:17:38;;;;;;;25.10;14.90;;;7.60;99.90;;;;;;5034166;28;20518;-75
2022/01/27 13:20:17;;;;;;;26.98;14.88;;;7.70;99.90;;;;;;5035691;28;20438;-76
2022/01/27 13:22:45;;;;;;;23.67;13.95;;;7.70;99.90;;;;;;5057159;28;21206;-76
2022/01/27 13:25:10;;;;;;;25.70;14.60;;;7.80;99.90;;;;;;5072106;28;20384;-75
2022/01/27 13:27:36;;;;;;;25.83;14.60;;;7.80;99.90;;;;;;5036974;28;20800;-75
2022/01/27 13:30:02;;;;;;;25.87;14.87;;;7.80;99.90;;;;;;5052101;28;20470;-76
2022/01/27 13:32:28;;;;;;;24.23;14.32;;;7.70;99.90;;;;;;5053524;28;20389;-76